Time;durP1;ratioP1;P1;durP2;ratioP2;P2;SDS_P1;SDS_P2;PMS_P1;PMS_P2;Temp;Humidity;BMP_temperature;BMP_pressure;BME280_temperature;BME280_humidity;BME280_pressure;Samples;Min_cycle;Max_cycle;Signal;HPM_P1;HPM_P2
2023/10/11 00:00:33;;;;;;;18.47;16.50;;;15.80;1.00;;;;;;5114122;27;21012;-69
2023/10/11 00:03:14;;;;;;;18.57;16.60;;;15.80;1.00;;;;;;5112178;27;20988;-70
2023/10/11 00:05:41;;;;;;;17.77;15.77;;;15.70;1.00;;;;;;5113163;27;20460;-70
2023/10/11 00:08:09;;;;;;;18.50;16.70;;;15.80;1.00;;;;;;5112427;27;20477;-71
2023/10/11 00:10:43;;;;;;;17.60;15.80;;;15.80;1.00;;;;;;5111537;27;21152;-73
2023/10/11 00:13:11;;;;;;;18.17;16.30;;;15.80;1.00;;;;;;5109391;27;20541;-71
2023/10/11 00:15:38;;;;;;;19.27;17.30;;;15.80;1.00;;;;;;5106376;27;20560;-73
2023/10/11 00:18:06;;;;;;;18.17;16.37;;;15.80;1.00;;;;;;5111964;27;20551;-71
2023/10/11 00:20:47;;;;;;;19.40;17.40;;;15.90;1.00;;;;;;5109899;27;20443;-71
2023/10/11 00:23:15;;;;;;;18.07;16.37;;;15.90;1.00;;;;;;5110622;27;20470;-72
2023/10/11 00:25:44;;;;;;;18.43;16.63;;;15.90;1.00;;;;;;5112631;27;21071;-70
2023/10/11 00:28:13;;;;;;;19.27;17.47;;;15.90;1.00;;;;;;5111697;27;20552;-71
2023/10/11 00:30:41;;;;;;;20.07;16.80;;;15.80;1.00;;;;;;5111991;27;20543;-74
2023/10/11 00:33:09;;;;;;;17.50;15.90;;;15.80;1.00;;;;;;5109523;27;20586;-71
2023/10/11 00:35:44;;;;;;;25.80;18.17;;;15.80;1.00;;;;;;5111025;27;21038;-73
2023/10/11 00:38:14;;;;;;;18.10;16.17;;;15.80;1.00;;;;;;5107129;27;20457;-71
2023/10/11 00:40:43;;;;;;;18.40;16.50;;;15.80;1.00;;;;;;5113046;27;20538;-74
2023/10/11 00:43:16;;;;;;;17.93;16.23;;;15.80;1.00;;;;;;5113155;27;20550;-78
2023/10/11 00:45:44;;;;;;;18.97;17.17;;;15.80;1.00;;;;;;5111480;27;20452;-72
2023/10/11 00:48:14;;;;;;;17.73;16.00;;;15.80;1.00;;;;;;5110511;27;20469;-73
2023/10/11 00:50:43;;;;;;;17.43;15.30;;;15.70;1.00;;;;;;5110941;27;20461;-70
2023/10/11 00:53:12;;;;;;;18.20;16.50;;;15.70;1.00;;;;;;5108497;27;20481;-72
2023/10/11 00:55:41;;;;;;;19.57;17.57;;;15.60;1.00;;;;;;5110842;27;20473;-71
2023/10/11 00:58:08;;;;;;;20.40;16.50;;;15.60;1.00;;;;;;5110027;27;20999;-73
2023/10/11 01:00:36;;;;;;;17.73;15.73;;;15.60;1.00;;;;;;5113740;27;20970;-71
2023/10/11 01:03:08;;;;;;;18.10;16.10;;;15.60;1.00;;;;;;5109697;27;20561;-70
2023/10/11 01:05:43;;;;;;;16.97;15.30;;;15.60;1.00;;;;;;5113774;27;20547;-70
2023/10/11 01:08:11;;;;;;;19.70;15.73;;;15.60;1.00;;;;;;5112773;27;20469;-72
2023/10/11 01:10:45;;;;;;;18.63;16.90;;;15.60;1.00;;;;;;5109479;27;20841;-72
2023/10/11 01:13:13;;;;;;;17.73;15.83;;;15.60;1.00;;;;;;5113636;27;20468;-71
2023/10/11 01:15:40;;;;;;;21.70;16.27;;;15.50;1.00;;;;;;5111984;27;20471;-70
2023/10/11 01:18:08;;;;;;;17.80;16.00;;;15.40;1.00;;;;;;5104626;27;20454;-71
2023/10/11 01:20:39;;;;;;;17.90;16.17;;;15.40;1.00;;;;;;5113600;27;20454;-70
2023/10/11 01:23:06;;;;;;;17.73;16.00;;;15.40;1.00;;;;;;5111737;27;20462;-72
2023/10/11 01:25:33;;;;;;;17.10;15.40;;;15.40;1.00;;;;;;5112529;27;20963;-71
2023/10/11 01:28:00;;;;;;;16.37;14.80;;;15.40;1.00;;;;;;5109985;27;20816;-71
2023/10/11 01:30:27;;;;;;;16.17;14.67;;;15.50;1.00;;;;;;5115268;27;20507;-72
2023/10/11 01:32:58;;;;;;;16.40;14.70;;;15.50;1.00;;;;;;5111860;27;21035;-72
2023/10/11 01:35:35;;;;;;;16.07;14.57;;;15.50;1.00;;;;;;5108121;27;20449;-72
2023/10/11 01:38:06;;;;;;;15.37;14.03;;;15.50;1.00;;;;;;5107658;27;20474;-71
2023/10/11 01:40:33;;;;;;;18.50;16.50;;;15.40;1.00;;;;;;5112478;27;20576;-70
2023/10/11 01:43:00;;;;;;;15.57;13.97;;;15.40;1.00;;;;;;5107491;27;20470;-71
2023/10/11 01:45:27;;;;;;;13.47;12.23;;;15.40;1.00;;;;;;5110691;27;20531;-73
2023/10/11 01:47:56;;;;;;;17.50;14.23;;;15.50;1.00;;;;;;5116336;27;20469;-71
2023/10/11 01:50:24;;;;;;;15.27;13.77;;;15.50;1.00;;;;;;5106361;27;20449;-72
2023/10/11 01:52:51;;;;;;;13.93;12.63;;;15.50;1.00;;;;;;5111283;27;20920;-68
2023/10/11 01:55:20;;;;;;;14.73;13.23;;;15.50;1.00;;;;;;5112231;27;20481;-71
2023/10/11 01:57:49;;;;;;;16.83;13.67;;;15.50;1.00;;;;;;5111211;27;20997;-71
2023/10/11 02:00:17;;;;;;;15.47;12.10;;;15.50;1.00;;;;;;5109979;27;20469;-71
2023/10/11 02:02:47;;;;;;;15.03;13.47;;;15.50;1.00;;;;;;5110925;27;20477;-70
2023/10/11 02:05:15;;;;;;;13.97;12.60;;;15.50;1.00;;;;;;5112222;27;20476;-71
2023/10/11 02:07:42;;;;;;;14.13;12.67;;;15.50;1.00;;;;;;5110789;27;20501;-71
2023/10/11 02:10:12;;;;;;;13.73;12.40;;;15.50;1.00;;;;;;5111419;27;20483;-72
2023/10/11 02:12:44;;;;;;;14.53;13.03;;;15.50;1.00;;;;;;5110994;27;22613;-71
2023/10/11 02:15:21;;;;;;;15.20;12.70;;;15.40;1.00;;;;;;5111567;27;20516;-71
2023/10/11 02:17:49;;;;;;;15.50;12.40;;;15.40;1.00;;;;;;5107882;27;21048;-71
2023/10/11 02:20:20;;;;;;;13.50;11.73;;;15.40;1.00;;;;;;5112018;27;20461;-71
2023/10/11 02:22:50;;;;;;;14.77;12.23;;;15.40;1.00;;;;;;5110653;27;20868;-75
2023/10/11 02:25:17;;;;;;;15.47;12.00;;;15.40;1.00;;;;;;5110871;27;20874;-72
2023/10/11 02:27:46;;;;;;;14.07;12.43;;;15.40;1.00;;;;;;5110979;27;21041;-70
2023/10/11 02:30:19;;;;;;;12.80;11.63;;;15.30;1.00;;;;;;5105720;27;20537;-71
2023/10/11 02:32:46;;;;;;;12.57;11.27;;;15.30;1.00;;;;;;5108458;27;21036;-73
2023/10/11 02:35:14;;;;;;;14.17;12.10;;;15.30;1.00;;;;;;5108697;27;20454;-73
2023/10/11 02:37:45;;;;;;;12.00;10.80;;;15.30;1.00;;;;;;5111491;27;20477;-74
2023/10/11 02:40:16;;;;;;;12.83;9.90;;;15.20;1.00;;;;;;5107556;27;20441;-78
2023/10/11 02:42:46;;;;;;;11.80;10.60;;;15.20;1.00;;;;;;5108263;27;20482;-76
2023/10/11 02:45:13;;;;;;;12.57;11.00;;;15.20;1.00;;;;;;5109948;27;20498;-73
2023/10/11 02:47:41;;;;;;;12.03;10.73;;;15.20;1.00;;;;;;5108654;27;20566;-73
2023/10/11 02:50:09;;;;;;;13.37;11.37;;;15.20;1.00;;;;;;5101202;27;20449;-73
2023/10/11 02:52:40;;;;;;;13.80;11.00;;;15.20;1.00;;;;;;5108805;27;20475;-73
2023/10/11 02:55:20;;;;;;;14.47;10.40;;;15.10;1.00;;;;;;5112955;27;20540;-74
2023/10/11 02:57:57;;;;;;;12.60;11.00;;;15.10;1.00;;;;;;5109953;27;20541;-74
2023/10/11 03:00:24;;;;;;;12.53;10.73;;;15.10;1.00;;;;;;5112902;27;20474;-73
2023/10/11 03:02:55;;;;;;;11.20;10.07;;;15.10;1.00;;;;;;5109852;27;20562;-72
2023/10/11 03:05:27;;;;;;;11.73;9.60;;;15.10;1.00;;;;;;5108505;27;20511;-72
2023/10/11 03:08:13;;;;;;;12.40;10.77;;;15.00;1.00;;;;;;5108465;27;20504;-72
2023/10/11 03:10:44;;;;;;;13.07;10.30;;;15.00;1.00;;;;;;5108024;27;20442;-71
2023/10/11 03:13:19;;;;;;;12.37;10.73;;;15.00;1.00;;;;;;5113416;27;20456;-72
2023/10/11 03:15:54;;;;;;;13.57;10.27;;;15.00;1.00;;;;;;5110622;27;20456;-73
2023/10/11 03:18:24;;;;;;;11.37;9.83;;;15.00;1.00;;;;;;5111038;27;20463;-73
2023/10/11 03:20:58;;;;;;;10.97;9.33;;;15.00;1.00;;;;;;5107614;27;20457;-73
2023/10/11 03:23:27;;;;;;;11.87;9.43;;;15.00;1.00;;;;;;5108970;27;20463;-73
2023/10/11 03:25:55;;;;;;;10.50;9.20;;;15.00;1.00;;;;;;5107696;27;20457;-73
2023/10/11 03:28:27;;;;;;;16.57;10.40;;;15.00;1.00;;;;;;5108233;27;20506;-73
2023/10/11 03:30:55;;;;;;;10.80;8.77;;;15.00;1.00;;;;;;5110737;27;20453;-73
2023/10/11 03:33:22;;;;;;;11.87;9.20;;;15.00;1.00;;;;;;5105631;27;20560;-73
2023/10/11 03:35:50;;;;;;;10.63;9.43;;;15.00;1.00;;;;;;5109113;27;20468;-71
2023/10/11 03:38:21;;;;;;;12.73;9.70;;;15.00;1.00;;;;;;5109112;27;20913;-74
2023/10/11 03:41:14;;;;;;;10.47;9.27;;;15.00;1.00;;;;;;5109986;27;20474;-74
2023/10/11 03:43:44;;;;;;;12.87;9.63;;;14.90;1.00;;;;;;5109210;27;20414;-73
2023/10/11 03:46:13;;;;;;;9.23;8.43;;;15.00;1.00;;;;;;5108895;27;20495;-72
2023/10/11 03:48:51;;;;;;;10.30;8.73;;;15.00;1.00;;;;;;5111222;27;20943;-72
2023/10/11 03:51:20;;;;;;;13.50;9.27;;;14.90;1.00;;;;;;5107075;27;20461;-73
2023/10/11 03:53:48;;;;;;;9.67;8.60;;;15.00;1.00;;;;;;5107095;27;20479;-72
2023/10/11 03:56:17;;;;;;;11.60;9.13;;;14.90;1.00;;;;;;5110726;27;20930;-74
2023/10/11 03:58:50;;;;;;;10.43;9.43;;;14.90;1.00;;;;;;5110693;27;20465;-74
2023/10/11 04:01:23;;;;;;;14.10;9.87;;;14.90;1.00;;;;;;5107824;27;20448;-73
2023/10/11 04:03:51;;;;;;;11.90;8.30;;;14.90;1.00;;;;;;5103266;27;20519;-73
2023/10/11 04:06:20;;;;;;;10.00;8.53;;;14.90;1.00;;;;;;5123624;27;20551;-72
2023/10/11 04:08:55;;;;;;;9.67;8.63;;;14.90;1.00;;;;;;5117505;27;20520;-73
2023/10/11 04:11:30;;;;;;;12.17;9.73;;;15.00;1.00;;;;;;5108201;27;20563;-72
2023/10/11 04:13:59;;;;;;;12.27;8.80;;;14.90;1.00;;;;;;5111354;27;20918;-72
2023/10/11 04:16:28;;;;;;;12.50;8.50;;;14.90;1.00;;;;;;5105795;27;20484;-74
2023/10/11 04:18:55;;;;;;;11.67;9.40;;;14.90;1.00;;;;;;5108896;27;20477;-72
2023/10/11 04:21:39;;;;;;;11.50;9.40;;;14.90;1.00;;;;;;5108722;27;20948;-72
2023/10/11 04:24:09;;;;;;;11.80;9.83;;;15.00;1.00;;;;;;5112137;27;20457;-72
2023/10/11 04:26:37;;;;;;;11.20;9.50;;;15.00;1.00;;;;;;5109476;27;20563;-73
2023/10/11 04:29:16;;;;;;;11.37;10.10;;;15.00;1.00;;;;;;5108909;27;20472;-73
2023/10/11 04:31:55;;;;;;;11.27;10.07;;;14.90;1.00;;;;;;5109044;27;20469;-73
2023/10/11 04:34:31;;;;;;;11.27;10.07;;;14.90;1.00;;;;;;5113255;27;20455;-72
2023/10/11 04:36:59;;;;;;;13.20;10.60;;;15.00;1.00;;;;;;5107433;27;20496;-72
2023/10/11 04:39:33;;;;;;;13.50;9.97;;;14.90;1.00;;;;;;5110046;27;20484;-72
2023/10/11 04:42:00;;;;;;;10.67;9.30;;;14.90;1.00;;;;;;5107079;27;20457;-73
2023/10/11 04:44:32;;;;;;;11.30;9.60;;;14.90;1.00;;;;;;5108864;27;20956;-73
2023/10/11 04:47:01;;;;;;;12.20;9.37;;;15.00;1.00;;;;;;5107928;27;20835;-73
2023/10/11 04:49:30;;;;;;;10.40;9.03;;;15.00;1.00;;;;;;5108589;27;20850;-72
2023/10/11 04:51:58;;;;;;;12.67;10.00;;;15.10;1.00;;;;;;5104254;27;21747;-71
2023/10/11 04:54:36;;;;;;;11.33;8.50;;;15.10;1.00;;;;;;5110831;27;20464;-70
2023/10/11 04:57:07;;;;;;;11.00;8.80;;;15.10;1.00;;;;;;5107368;27;20460;-70
2023/10/11 04:59:38;;;;;;;11.30;8.60;;;15.10;1.00;;;;;;5109466;27;20901;-70
2023/10/11 05:02:16;;;;;;;9.60;8.43;;;15.10;1.00;;;;;;5101100;27;20511;-71
2023/10/11 05:04:44;;;;;;;10.47;9.47;;;15.10;1.00;;;;;;5110893;27;20967;-71
2023/10/11 05:07:13;;;;;;;13.33;8.60;;;15.10;1.00;;;;;;5104391;27;20992;-71
2023/10/11 05:09:40;;;;;;;12.23;8.67;;;15.10;1.00;;;;;;5105928;27;20826;-72
2023/10/11 05:12:10;;;;;;;12.43;8.40;;;15.10;1.00;;;;;;5108254;27;20934;-71
2023/10/11 05:14:56;;;;;;;11.83;8.60;;;15.10;1.00;;;;;;5108529;27;20492;-71
2023/10/11 05:17:38;;;;;;;10.73;8.70;;;15.10;1.00;;;;;;5109305;27;20458;-71
2023/10/11 05:22:52;;;;;;;10.67;9.13;;;15.10;1.00;;;;;;5094764;27;20448;-70
2023/10/11 05:28:26;;;;;;;10.10;8.00;;;15.20;1.00;;;;;;5103849;27;20457;-73
2023/10/11 05:31:19;;;;;;;10.73;8.50;;;15.20;1.00;;;;;;5108870;27;20476;-72
2023/10/11 05:34:12;;;;;;;11.33;9.07;;;15.20;1.00;;;;;;5110376;27;20487;-72
2023/10/11 05:36:51;;;;;;;11.20;9.00;;;15.30;1.00;;;;;;5106575;27;20507;-72
2023/10/11 05:52:57;;;;;;;11.90;8.60;;;15.30;1.00;;;;;;5106966;27;20483;-73
2023/10/11 05:55:24;;;;;;;9.53;8.40;;;15.40;1.00;;;;;;5111363;27;20953;-73
2023/10/11 05:57:52;;;;;;;9.03;8.07;;;15.40;1.00;;;;;;5102497;27;20971;-71
2023/10/11 06:00:25;;;;;;;10.03;7.50;;;15.40;1.00;;;;;;5111298;27;20473;-72
2023/10/11 06:02:53;;;;;;;8.87;7.37;;;15.40;1.00;;;;;;5106131;27;20488;-72
2023/10/11 06:05:23;;;;;;;12.17;8.20;;;15.50;1.00;;;;;;5104427;27;20516;-72
2023/10/11 06:08:03;;;;;;;13.67;9.23;;;15.50;1.00;;;;;;5108897;27;20967;-71
2023/10/11 06:10:41;;;;;;;9.50;8.10;;;15.60;1.00;;;;;;5100217;27;20557;-72
2023/10/11 06:13:13;;;;;;;10.30;7.17;;;15.60;1.00;;;;;;5103619;27;20629;-71
2023/10/11 06:15:58;;;;;;;9.30;7.90;;;15.60;1.00;;;;;;5104570;27;20484;-72
2023/10/11 06:18:39;;;;;;;10.73;8.37;;;15.60;1.00;;;;;;5105935;27;20462;-74
2023/10/11 06:21:08;;;;;;;11.37;8.10;;;15.60;1.00;;;;;;5109402;27;20462;-72
2023/10/11 06:23:38;;;;;;;10.00;7.17;;;15.70;1.00;;;;;;5111715;27;20466;-73
2023/10/11 06:26:28;;;;;;;9.30;8.33;;;15.70;1.00;;;;;;5104975;27;20466;-72
2023/10/11 06:29:03;;;;;;;9.67;7.37;;;15.80;1.00;;;;;;5106024;27;21007;-70
2023/10/11 06:31:34;;;;;;;10.67;7.93;;;15.90;1.00;;;;;;5104287;27;20550;-73
2023/10/11 06:34:03;;;;;;;11.03;9.20;;;16.00;1.00;;;;;;5103566;27;20852;-72
2023/10/11 06:36:35;;;;;;;11.10;7.70;;;16.00;1.00;;;;;;5106030;27;20515;-70
2023/10/11 06:39:19;;;;;;;10.53;7.60;;;16.10;1.00;;;;;;5108362;27;20978;-70
2023/10/11 06:41:50;;;;;;;9.93;7.77;;;16.20;1.00;;;;;;5113794;27;20901;-72
2023/10/11 06:44:18;;;;;;;9.53;7.30;;;16.30;1.00;;;;;;5110203;27;20846;-71
2023/10/11 06:46:50;;;;;;;11.53;8.77;;;16.40;1.00;;;;;;5110307;27;20604;-71
2023/10/11 06:49:19;;;;;;;13.87;7.83;;;16.50;1.00;;;;;;5108511;27;20441;-71
2023/10/11 06:51:46;;;;;;;10.13;7.50;;;16.60;1.00;;;;;;5104113;27;20454;-70
2023/10/11 06:54:15;;;;;;;12.10;8.80;;;16.70;1.00;;;;;;5110496;27;20505;-72
2023/10/11 06:56:42;;;;;;;10.50;7.40;;;16.80;1.00;;;;;;5111088;27;21061;-72
2023/10/11 06:59:14;;;;;;;9.83;7.37;;;16.90;1.00;;;;;;5111120;27;20486;-71
2023/10/11 07:01:41;;;;;;;10.80;7.90;;;17.00;1.00;;;;;;5109795;27;20460;-70
2023/10/11 07:04:09;;;;;;;9.23;7.43;;;17.10;1.00;;;;;;5109611;27;20462;-71
2023/10/11 07:06:37;;;;;;;10.83;8.27;;;17.30;1.00;;;;;;5109870;27;20458;-70
2023/10/11 07:09:05;;;;;;;9.17;7.47;;;17.40;1.00;;;;;;5110867;27;20457;-70
2023/10/11 07:11:43;;;;;;;8.37;7.17;;;17.50;1.00;;;;;;5110454;27;20493;-70
2023/10/11 07:14:15;;;;;;;11.47;6.40;;;17.60;1.00;;;;;;5110796;27;20581;-70
2023/10/11 07:16:44;;;;;;;9.60;6.70;;;17.80;1.00;;;;;;5105494;27;20457;-71
2023/10/11 07:19:15;;;;;;;8.37;6.40;;;17.90;1.00;;;;;;5105404;27;21334;-72
2023/10/11 07:21:52;;;;;;;10.83;7.53;;;18.00;1.00;;;;;;5105945;27;20451;-72
2023/10/11 07:24:39;;;;;;;8.57;6.60;;;18.20;1.00;;;;;;5097605;27;21271;-70
2023/10/11 07:27:09;;;;;;;10.30;7.73;;;18.30;1.00;;;;;;5101780;27;20553;-74
2023/10/11 07:29:37;;;;;;;9.07;7.13;;;18.50;1.00;;;;;;5102277;27;20464;-70
2023/10/11 07:32:09;;;;;;;8.43;6.80;;;18.60;1.00;;;;;;5107177;27;20471;-72
2023/10/11 07:34:38;;;;;;;9.37;6.67;;;18.70;1.00;;;;;;5106313;27;20549;-71
2023/10/11 07:37:06;;;;;;;11.10;7.30;;;18.80;1.00;;;;;;5104886;27;20455;-72
2023/10/11 07:39:33;;;;;;;10.07;7.23;;;18.90;1.00;;;;;;5104384;27;20463;-71
2023/10/11 07:42:06;;;;;;;11.43;7.47;;;19.00;1.00;;;;;;5102725;27;21266;-71
2023/10/11 07:44:36;;;;;;;9.80;7.07;;;19.10;1.00;;;;;;5107051;27;20931;-71
2023/10/11 07:47:06;;;;;;;8.40;7.20;;;19.20;1.00;;;;;;5103942;27;20454;-71
2023/10/11 07:49:38;;;;;;;7.13;6.53;;;19.30;1.00;;;;;;5102557;27;20594;-70
2023/10/11 07:52:09;;;;;;;10.87;5.93;;;19.40;1.00;;;;;;5104578;27;20548;-73
2023/10/11 07:54:37;;;;;;;7.40;6.10;;;19.50;1.00;;;;;;5106029;27;20465;-71
2023/10/11 07:57:04;;;;;;;11.13;6.60;;;19.60;1.00;;;;;;5101138;27;20541;-70
2023/10/11 07:59:31;;;;;;;6.87;6.10;;;19.80;1.00;;;;;;5103933;27;20573;-70
2023/10/11 08:02:07;;;;;;;11.13;6.67;;;19.80;1.00;;;;;;5105036;27;20460;-70
2023/10/11 08:04:35;;;;;;;8.80;6.53;;;19.90;1.00;;;;;;5105927;27;20529;-73
2023/10/11 08:07:04;;;;;;;8.90;6.30;;;19.90;1.00;;;;;;5103907;27;20964;-71
2023/10/11 08:09:45;;;;;;;8.70;6.90;;;19.90;1.00;;;;;;5102501;27;20426;-73
2023/10/11 08:12:13;;;;;;;14.93;6.60;;;20.00;1.00;;;;;;5112076;27;20927;-71
2023/10/11 08:14:44;;;;;;;8.83;7.00;;;20.10;1.00;;;;;;5107855;27;20470;-72
2023/10/11 08:17:12;;;;;;;6.87;5.77;;;20.10;1.00;;;;;;5107736;27;20457;-70
2023/10/11 08:19:43;;;;;;;8.50;5.30;;;20.30;1.00;;;;;;5108450;27;20485;-69
2023/10/11 08:22:14;;;;;;;9.90;6.17;;;20.30;1.00;;;;;;5112649;27;20456;-78
2023/10/11 08:24:49;;;;;;;9.73;6.47;;;20.40;1.00;;;;;;5112233;27;20497;-76
2023/10/11 08:27:23;;;;;;;8.57;6.80;;;20.60;1.00;;;;;;5105298;27;20516;-80
2023/10/11 08:29:54;;;;;;;12.40;7.10;;;20.70;1.00;;;;;;5109296;27;20470;-76
2023/10/11 08:32:26;;;;;;;9.60;5.80;;;20.80;1.00;;;;;;5110900;27;20477;-77
2023/10/11 08:34:54;;;;;;;7.70;5.60;;;21.00;1.00;;;;;;5114702;27;20457;-77
2023/10/11 08:37:21;;;;;;;6.83;6.00;;;21.50;1.00;;;;;;5111768;27;20439;-76
2023/10/11 08:39:54;;;;;;;7.80;4.80;;;22.20;1.00;;;;;;5112424;27;20555;-76
2023/10/11 08:42:22;;;;;;;14.00;6.60;;;22.70;1.00;;;;;;5111362;27;20491;-78
2023/10/11 08:44:50;;;;;;;8.43;6.20;;;23.00;1.00;;;;;;5110052;27;20501;-77
2023/10/11 08:47:19;;;;;;;11.00;6.10;;;23.10;1.00;;;;;;5108916;27;21015;-79
2023/10/11 08:49:49;;;;;;;8.63;6.50;;;23.40;1.00;;;;;;5109609;27;20457;-78
2023/10/11 08:52:22;;;;;;;8.20;6.77;;;23.80;1.00;;;;;;5112282;27;20455;-78
2023/10/11 08:54:51;;;;;;;10.07;5.90;;;23.80;1.00;;;;;;5109775;27;20544;-79
2023/10/11 08:57:23;;;;;;;7.30;6.23;;;23.50;1.00;;;;;;5113653;27;20453;-79
2023/10/11 08:59:51;;;;;;;8.07;5.60;;;23.30;1.00;;;;;;5112815;27;21197;-80
2023/10/11 09:02:19;;;;;;;6.73;5.30;;;23.20;1.00;;;;;;5118416;27;20489;-80
2023/10/11 09:04:57;;;;;;;9.47;6.30;;;23.20;1.00;;;;;;5117213;27;20513;-78
2023/10/11 09:07:38;;;;;;;10.80;6.17;;;23.50;1.00;;;;;;5122838;27;21186;-80
2023/10/11 09:10:23;;;;;;;8.63;5.30;;;23.90;1.00;;;;;;5117072;27;20467;-81
2023/10/11 09:12:56;;;;;;;14.30;7.27;;;24.70;1.00;;;;;;5114754;27;20472;-79
2023/10/11 09:15:23;;;;;;;7.33;5.17;;;24.90;1.00;;;;;;5115781;27;20558;-78
2023/10/11 09:17:51;;;;;;;6.40;5.60;;;25.30;1.00;;;;;;5113249;27;20549;-81
2023/10/11 09:20:23;;;;;;;9.43;5.77;;;25.60;1.00;;;;;;5118946;27;20456;-78
2023/10/11 09:22:55;;;;;;;7.53;5.93;;;25.40;1.00;;;;;;5115470;27;20452;-78
2023/10/11 09:25:33;;;;;;;7.57;5.70;;;25.30;1.00;;;;;;5113566;27;20472;-77
2023/10/11 09:28:00;;;;;;;7.30;5.77;;;25.30;1.00;;;;;;5114275;27;20452;-78
2023/10/11 09:30:27;;;;;;;6.90;6.20;;;24.90;1.00;;;;;;5114236;27;20521;-79
2023/10/11 09:32:59;;;;;;;9.57;6.27;;;24.50;1.00;;;;;;5114154;27;20459;-71
2023/10/11 09:35:28;;;;;;;10.10;7.17;;;24.20;1.00;;;;;;5112818;27;20468;-71
2023/10/11 09:37:57;;;;;;;9.10;6.53;;;24.00;1.00;;;;;;5112577;27;20473;-73
2023/10/11 09:40:31;;;;;;;8.40;5.50;;;23.90;1.00;;;;;;5108551;27;20551;-74
2023/10/11 09:43:04;;;;;;;9.20;5.77;;;23.80;1.00;;;;;;5111681;27;20453;-75
2023/10/11 09:45:41;;;;;;;7.00;5.73;;;23.90;1.00;;;;;;5113040;27;20974;-73
2023/10/11 09:48:12;;;;;;;9.40;8.43;;;24.10;1.00;;;;;;5112315;27;20532;-72
2023/10/11 09:50:41;;;;;;;6.73;5.07;;;23.90;1.00;;;;;;5110571;27;20488;-72
2023/10/11 09:53:11;;;;;;;7.13;5.67;;;23.80;1.00;;;;;;5111819;27;20450;-73
2023/10/11 09:55:45;;;;;;;8.97;5.57;;;23.60;1.00;;;;;;5110961;27;20472;-72
2023/10/11 09:58:23;;;;;;;8.20;5.37;;;23.50;1.00;;;;;;5110799;27;20560;-72
2023/10/11 10:00:59;;;;;;;8.33;6.20;;;23.50;1.00;;;;;;5107909;27;20509;-71
2023/10/11 10:03:26;;;;;;;6.50;5.57;;;23.50;1.00;;;;;;5109725;27;20457;-71
2023/10/11 10:06:06;;;;;;;6.93;5.50;;;23.60;1.00;;;;;;5113691;27;21080;-71
2023/10/11 10:08:33;;;;;;;7.87;5.67;;;23.60;1.00;;;;;;5112630;27;20458;-72
2023/10/11 10:11:03;;;;;;;7.73;6.17;;;23.80;1.00;;;;;;5113184;27;20493;-71
2023/10/11 10:13:37;;;;;;;8.13;5.57;;;23.80;1.00;;;;;;5111690;27;20557;-71
2023/10/11 10:16:04;;;;;;;7.90;5.50;;;23.90;1.00;;;;;;5107621;27;20924;-69
2023/10/11 10:18:35;;;;;;;9.20;5.83;;;23.80;1.00;;;;;;5108224;27;20482;-68
2023/10/11 10:21:05;;;;;;;7.77;5.77;;;23.90;1.00;;;;;;5109110;27;21098;-69
2023/10/11 10:23:37;;;;;;;10.00;6.07;;;24.30;1.00;;;;;;5109772;27;20943;-69
2023/10/11 10:26:38;;;;;;;6.37;4.97;;;24.80;1.00;;;;;;5109328;27;20471;-70
2023/10/11 10:29:07;;;;;;;5.90;5.07;;;25.00;1.00;;;;;;5108811;27;20445;-72
2023/10/11 10:31:34;;;;;;;9.20;5.70;;;25.00;1.00;;;;;;5108276;27;20460;-69
2023/10/11 10:34:24;;;;;;;8.17;5.77;;;25.00;1.00;;;;;;5110096;27;20492;-67
2023/10/11 10:36:52;;;;;;;7.30;5.20;;;24.90;1.00;;;;;;5115011;27;20998;-68
2023/10/11 10:39:46;;;;;;;9.90;6.20;;;24.90;1.00;;;;;;5113848;27;20877;-69
2023/10/11 10:42:16;;;;;;;8.57;5.60;;;24.90;1.00;;;;;;5108244;27;20540;-79
2023/10/11 10:44:51;;;;;;;7.37;6.57;;;24.90;1.00;;;;;;5109458;27;20525;-79
2023/10/11 10:47:25;;;;;;;7.33;5.83;;;25.20;1.00;;;;;;5107000;27;20561;-75
2023/10/11 10:49:54;;;;;;;7.67;6.27;;;25.30;1.00;;;;;;5111656;27;20842;-73
2023/10/11 10:52:22;;;;;;;7.70;6.10;;;25.30;1.00;;;;;;5109085;27;20841;-77
2023/10/11 10:55:02;;;;;;;9.93;6.30;;;25.40;1.00;;;;;;5114954;27;20462;-80
2023/10/11 10:57:36;;;;;;;6.30;5.60;;;25.70;1.00;;;;;;5112118;27;20475;-75
2023/10/11 11:00:05;;;;;;;7.50;6.17;;;26.10;1.00;;;;;;5110803;27;20530;-78
2023/10/11 11:02:36;;;;;;;6.23;5.33;;;26.10;1.00;;;;;;5108688;27;21411;-81
2023/10/11 11:05:13;;;;;;;8.60;5.57;;;26.00;1.00;;;;;;5113055;27;20458;-76
2023/10/11 11:07:47;;;;;;;6.90;6.20;;;26.20;1.00;;;;;;5110539;27;20555;-75
2023/10/11 11:10:17;;;;;;;7.53;5.77;;;26.50;1.00;;;;;;5112766;27;20546;-78
2023/10/11 11:12:46;;;;;;;6.10;5.50;;;26.70;1.00;;;;;;5113799;27;20588;-78
2023/10/11 11:15:20;;;;;;;12.03;5.63;;;27.50;1.00;;;;;;5113284;27;20493;-79
2023/10/11 11:17:49;;;;;;;6.70;4.67;;;28.20;1.00;;;;;;5117310;27;20575;-79
2023/10/11 11:20:28;;;;;;;10.03;5.73;;;28.90;1.00;;;;;;5110226;27;20441;-78
2023/10/11 11:22:56;;;;;;;7.50;5.50;;;29.40;1.00;;;;;;5110610;27;20456;-78
2023/10/11 11:25:29;;;;;;;11.00;6.00;;;29.20;1.00;;;;;;5110612;27;20553;-82
2023/10/11 11:28:15;;;;;;;6.87;5.40;;;29.00;1.00;;;;;;5115331;27;20484;-79
2023/10/11 11:30:43;;;;;;;6.60;5.23;;;28.80;1.00;;;;;;5105544;27;20462;-78
2023/10/11 11:33:34;;;;;;;9.50;6.00;;;28.70;1.00;;;;;;5115074;27;20542;-79
2023/10/11 11:35:59;;;;;;;5.83;4.93;;;28.50;1.00;;;;;;5108723;27;20456;-78
2023/10/11 11:38:36;;;;;;;7.20;6.00;;;28.30;1.00;;;;;;5111456;27;20479;-73
2023/10/11 11:41:03;;;;;;;6.77;5.20;;;28.20;1.00;;;;;;5123745;27;21036;-75
2023/10/11 11:43:38;;;;;;;6.30;4.87;;;28.30;1.00;;;;;;5124852;27;20443;-83
2023/10/11 11:46:05;;;;;;;9.63;5.20;;;28.30;1.00;;;;;;5117799;27;20465;-78
2023/10/11 11:48:41;;;;;;;7.33;5.60;;;28.20;1.00;;;;;;5111981;27;20568;-80
2023/10/11 11:51:13;;;;;;;6.70;5.60;;;28.10;1.00;;;;;;5109602;27;20455;-74
2023/10/11 11:53:43;;;;;;;6.70;4.83;;;28.40;1.00;;;;;;5109007;27;20456;-71
2023/10/11 11:56:11;;;;;;;8.33;5.80;;;28.80;1.00;;;;;;5104158;27;20453;-71
2023/10/11 11:58:45;;;;;;;8.10;5.63;;;28.80;1.00;;;;;;5107141;27;20540;-70
2023/10/11 12:01:16;;;;;;;5.90;5.30;;;29.00;1.00;;;;;;5104142;27;20452;-71
2023/10/11 12:03:42;;;;;;;8.50;5.80;;;29.10;1.00;;;;;;5108143;27;20581;-70
2023/10/11 12:06:22;;;;;;;6.63;4.67;;;28.80;1.00;;;;;;5105856;27;20468;-71
2023/10/11 12:08:57;;;;;;;8.87;6.40;;;28.60;1.00;;;;;;5105646;27;21024;-71
2023/10/11 12:11:23;;;;;;;8.73;6.07;;;28.50;1.00;;;;;;5105883;27;20505;-70
2023/10/11 12:13:52;;;;;;;7.47;4.73;;;28.50;1.00;;;;;;5108605;27;20550;-72
2023/10/11 12:16:22;;;;;;;7.07;5.63;;;28.30;1.00;;;;;;5105428;27;20502;-73
2023/10/11 12:18:49;;;;;;;6.10;5.27;;;28.20;1.00;;;;;;5110314;27;20577;-71
2023/10/11 12:21:17;;;;;;;8.53;6.80;;;27.90;1.00;;;;;;5105500;27;20463;-72
2023/10/11 12:23:47;;;;;;;15.57;4.83;;;27.70;1.00;;;;;;5105806;27;20541;-71
2023/10/11 12:26:16;;;;;;;6.80;5.10;;;27.50;1.00;;;;;;5108322;27;20542;-70
2023/10/11 12:28:43;;;;;;;8.13;4.70;;;27.20;1.00;;;;;;5107036;27;20569;-75
2023/10/11 12:31:12;;;;;;;8.00;6.50;;;27.40;1.00;;;;;;5106389;27;20478;-71
2023/10/11 12:33:39;;;;;;;7.80;6.20;;;27.40;1.00;;;;;;5105502;27;21043;-70
2023/10/11 12:36:07;;;;;;;7.53;5.07;;;27.40;1.00;;;;;;5104227;27;20513;-72
2023/10/11 12:38:36;;;;;;;5.97;5.37;;;27.50;1.00;;;;;;5107174;27;20482;-72
2023/10/11 12:41:04;;;;;;;6.30;5.37;;;27.40;1.00;;;;;;5109077;27;20467;-71
2023/10/11 12:43:32;;;;;;;6.23;5.60;;;27.40;1.00;;;;;;5105900;27;20458;-72
2023/10/11 12:45:59;;;;;;;9.73;6.10;;;27.10;1.00;;;;;;5107021;27;20460;-71
2023/10/11 12:48:28;;;;;;;5.57;4.93;;;27.00;1.00;;;;;;5122482;27;20456;-73
2023/10/11 12:50:57;;;;;;;8.40;6.20;;;26.80;1.00;;;;;;5109903;27;20465;-70
2023/10/11 12:53:28;;;;;;;6.53;5.20;;;26.60;1.00;;;;;;5104760;27;20456;-71
2023/10/11 12:55:57;;;;;;;7.03;5.23;;;26.40;1.00;;;;;;5105992;27;20583;-72
2023/10/11 12:58:27;;;;;;;6.10;4.90;;;26.30;1.00;;;;;;5105826;27;20547;-70
2023/10/11 13:00:58;;;;;;;7.30;5.40;;;26.20;1.00;;;;;;5103425;27;20997;-71
2023/10/11 13:03:28;;;;;;;8.73;5.53;;;26.00;1.00;;;;;;5108113;27;21013;-75
2023/10/11 13:05:57;;;;;;;6.10;4.83;;;25.90;1.00;;;;;;5108162;27;20547;-75
2023/10/11 13:08:26;;;;;;;9.83;5.90;;;25.90;1.00;;;;;;5111304;27;20458;-75
2023/10/11 13:10:54;;;;;;;7.40;5.70;;;26.00;1.00;;;;;;5113189;27;20455;-73
2023/10/11 13:13:22;;;;;;;10.70;5.27;;;26.10;1.00;;;;;;5110638;27;20991;-73
2023/10/11 13:15:59;;;;;;;9.10;5.53;;;26.20;1.00;;;;;;5113474;27;20518;-72
2023/10/11 13:18:27;;;;;;;7.37;6.17;;;26.00;1.00;;;;;;5109608;27;20488;-73
2023/10/11 13:20:56;;;;;;;6.93;5.77;;;25.90;1.00;;;;;;5110093;27;20503;-75
2023/10/11 13:23:28;;;;;;;6.83;6.23;;;25.90;1.00;;;;;;5112159;27;20470;-74
2023/10/11 13:25:57;;;;;;;6.43;5.30;;;25.90;1.00;;;;;;5109689;27;20461;-75
2023/10/11 13:28:26;;;;;;;6.67;5.47;;;25.90;1.00;;;;;;5111680;27;20549;-72